sensor_id;sensor_type;location;lat;lon;timestamp;P1;durP1;ratioP1;P2;durP2;ratioP2
69744;SDS011;57015;50.120;-5.168;2022-07-06T00:01:39;5.50;;;1.00;;
69744;SDS011;57015;50.120;-5.168;2022-07-06T00:04:04;2.83;;;1.20;;
69744;SDS011;57015;50.120;-5.168;2022-07-06T00:06:30;2.95;;;1.27;;
69744;SDS011;57015;50.120;-5.168;2022-07-06T00:08:56;3.07;;;1.33;;
69744;SDS011;57015;50.120;-5.168;2022-07-06T00:11:21;2.42;;;1.40;;
69744;SDS011;57015;50.120;-5.168;2022-07-06T00:13:47;3.80;;;1.52;;
69744;SDS011;57015;50.120;-5.168;2022-07-06T00:16:13;2.93;;;1.20;;
69744;SDS011;57015;50.120;-5.168;2022-07-06T00:18:38;5.80;;;1.50;;
69744;SDS011;57015;50.120;-5.168;2022-07-06T00:21:03;4.27;;;1.20;;
69744;SDS011;57015;50.120;-5.168;2022-07-06T00:23:29;3.10;;;1.00;;
69744;SDS011;57015;50.120;-5.168;2022-07-06T00:25:54;2.90;;;1.20;;
69744;SDS011;57015;50.120;-5.168;2022-07-06T00:28:20;3.25;;;1.08;;
69744;SDS011;57015;50.120;-5.168;2022-07-06T00:30:45;3.53;;;1.17;;
69744;SDS011;57015;50.120;-5.168;2022-07-06T00:33:11;4.47;;;1.63;;
69744;SDS011;57015;50.120;-5.168;2022-07-06T00:35:36;3.50;;;0.90;;
69744;SDS011;57015;50.120;-5.168;2022-07-06T00:38:02;4.87;;;1.27;;
69744;SDS011;57015;50.120;-5.168;2022-07-06T00:40:27;3.58;;;1.10;;
69744;SDS011;57015;50.120;-5.168;2022-07-06T00:42:54;3.67;;;1.20;;
69744;SDS011;57015;50.120;-5.168;2022-07-06T00:45:20;3.97;;;1.20;;
69744;SDS011;57015;50.120;-5.168;2022-07-06T00:47:46;3.83;;;1.40;;
69744;SDS011;57015;50.120;-5.168;2022-07-06T00:50:12;3.38;;;1.10;;
69744;SDS011;57015;50.120;-5.168;2022-07-06T00:52:59;3.47;;;1.00;;
69744;SDS011;57015;50.120;-5.168;2022-07-06T00:55:27;5.22;;;1.50;;
69744;SDS011;57015;50.120;-5.168;2022-07-06T00:57:53;2.33;;;1.00;;
69744;SDS011;57015;50.120;-5.168;2022-07-06T01:00:20;2.47;;;0.90;;
69744;SDS011;57015;50.120;-5.168;2022-07-06T01:02:47;4.13;;;1.30;;
69744;SDS011;57015;50.120;-5.168;2022-07-06T01:05:13;2.83;;;1.05;;
69744;SDS011;57015;50.120;-5.168;2022-07-06T01:07:40;4.07;;;1.00;;
69744;SDS011;57015;50.120;-5.168;2022-07-06T01:10:07;4.30;;;1.08;;
69744;SDS011;57015;50.120;-5.168;2022-07-06T01:12:37;2.23;;;0.90;;
69744;SDS011;57015;50.120;-5.168;2022-07-06T01:15:05;2.67;;;1.02;;
69744;SDS011;57015;50.120;-5.168;2022-07-06T01:17:32;3.60;;;0.95;;
69744;SDS011;57015;50.120;-5.168;2022-07-06T01:19:58;3.08;;;0.98;;
69744;SDS011;57015;50.120;-5.168;2022-07-06T01:22:23;4.13;;;1.20;;
69744;SDS011;57015;50.120;-5.168;2022-07-06T01:24:49;3.93;;;0.87;;
69744;SDS011;57015;50.120;-5.168;2022-07-06T01:27:14;3.60;;;1.00;;
69744;SDS011;57015;50.120;-5.168;2022-07-06T01:29:40;3.45;;;0.80;;
69744;SDS011;57015;50.120;-5.168;2022-07-06T01:32:05;2.97;;;1.20;;
69744;SDS011;57015;50.120;-5.168;2022-07-06T01:34:31;3.45;;;1.30;;
69744;SDS011;57015;50.120;-5.168;2022-07-06T01:36:56;5.28;;;1.00;;
69744;SDS011;57015;50.120;-5.168;2022-07-06T01:39:22;4.53;;;1.27;;
69744;SDS011;57015;50.120;-5.168;2022-07-06T01:41:47;3.10;;;1.00;;
69744;SDS011;57015;50.120;-5.168;2022-07-06T01:44:12;4.13;;;1.20;;
69744;SDS011;57015;50.120;-5.168;2022-07-06T01:46:38;4.88;;;1.23;;
69744;SDS011;57015;50.120;-5.168;2022-07-06T01:49:04;5.95;;;1.10;;
69744;SDS011;57015;50.120;-5.168;2022-07-06T01:51:29;6.07;;;1.63;;
69744;SDS011;57015;50.120;-5.168;2022-07-06T01:53:55;5.53;;;1.58;;
69744;SDS011;57015;50.120;-5.168;2022-07-06T01:56:20;4.47;;;1.33;;
69744;SDS011;57015;50.120;-5.168;2022-07-06T01:58:46;6.43;;;1.70;;
69744;SDS011;57015;50.120;-5.168;2022-07-06T02:01:21;5.07;;;1.23;;
69744;SDS011;57015;50.120;-5.168;2022-07-06T02:03:47;8.13;;;1.77;;
69744;SDS011;57015;50.120;-5.168;2022-07-06T02:06:12;6.77;;;1.63;;
69744;SDS011;57015;50.120;-5.168;2022-07-06T02:08:38;6.10;;;1.52;;
69744;SDS011;57015;50.120;-5.168;2022-07-06T02:11:04;8.83;;;1.70;;
69744;SDS011;57015;50.120;-5.168;2022-07-06T02:13:30;5.30;;;1.35;;
69744;SDS011;57015;50.120;-5.168;2022-07-06T02:15:56;6.00;;;1.90;;
69744;SDS011;57015;50.120;-5.168;2022-07-06T02:18:21;7.47;;;1.88;;
69744;SDS011;57015;50.120;-5.168;2022-07-06T02:20:47;5.17;;;2.20;;
69744;SDS011;57015;50.120;-5.168;2022-07-06T02:23:12;7.13;;;1.90;;
69744;SDS011;57015;50.120;-5.168;2022-07-06T02:25:38;7.07;;;2.00;;
69744;SDS011;57015;50.120;-5.168;2022-07-06T02:28:03;6.88;;;2.05;;
69744;SDS011;57015;50.120;-5.168;2022-07-06T02:30:29;6.70;;;2.22;;
69744;SDS011;57015;50.120;-5.168;2022-07-06T02:32:54;7.37;;;2.00;;
69744;SDS011;57015;50.120;-5.168;2022-07-06T02:35:19;6.77;;;2.23;;
69744;SDS011;57015;50.120;-5.168;2022-07-06T02:37:45;6.57;;;2.20;;
69744;SDS011;57015;50.120;-5.168;2022-07-06T02:40:10;8.13;;;2.38;;
69744;SDS011;57015;50.120;-5.168;2022-07-06T02:42:36;7.33;;;2.37;;
69744;SDS011;57015;50.120;-5.168;2022-07-06T02:45:02;8.33;;;2.07;;
69744;SDS011;57015;50.120;-5.168;2022-07-06T02:47:28;9.55;;;2.40;;
69744;SDS011;57015;50.120;-5.168;2022-07-06T02:49:53;6.87;;;2.40;;
69744;SDS011;57015;50.120;-5.168;2022-07-06T02:52:18;7.03;;;2.30;;
69744;SDS011;57015;50.120;-5.168;2022-07-06T02:54:44;9.45;;;2.60;;
69744;SDS011;57015;50.120;-5.168;2022-07-06T02:57:10;7.13;;;2.87;;
69744;SDS011;57015;50.120;-5.168;2022-07-06T02:59:35;8.38;;;2.30;;
69744;SDS011;57015;50.120;-5.168;2022-07-06T03:02:02;8.27;;;2.17;;
69744;SDS011;57015;50.120;-5.168;2022-07-06T03:04:28;7.50;;;2.53;;
69744;SDS011;57015;50.120;-5.168;2022-07-06T03:06:54;7.43;;;2.97;;
69744;SDS011;57015;50.120;-5.168;2022-07-06T03:09:19;8.30;;;2.43;;
69744;SDS011;57015;50.120;-5.168;2022-07-06T03:11:44;8.30;;;2.40;;
69744;SDS011;57015;50.120;-5.168;2022-07-06T03:14:10;8.33;;;2.03;;
69744;SDS011;57015;50.120;-5.168;2022-07-06T03:16:35;8.30;;;2.47;;
69744;SDS011;57015;50.120;-5.168;2022-07-06T03:19:00;9.37;;;3.13;;
69744;SDS011;57015;50.120;-5.168;2022-07-06T03:21:26;9.03;;;2.73;;
69744;SDS011;57015;50.120;-5.168;2022-07-06T03:23:51;8.93;;;2.80;;
69744;SDS011;57015;50.120;-5.168;2022-07-06T03:26:17;9.40;;;2.40;;
69744;SDS011;57015;50.120;-5.168;2022-07-06T03:28:42;10.17;;;2.30;;
69744;SDS011;57015;50.120;-5.168;2022-07-06T03:31:07;6.40;;;2.30;;
69744;SDS011;57015;50.120;-5.168;2022-07-06T03:33:33;6.03;;;2.10;;
69744;SDS011;57015;50.120;-5.168;2022-07-06T03:35:58;9.10;;;2.27;;
69744;SDS011;57015;50.120;-5.168;2022-07-06T03:38:24;10.27;;;2.80;;
69744;SDS011;57015;50.120;-5.168;2022-07-06T03:40:49;6.80;;;2.08;;
69744;SDS011;57015;50.120;-5.168;2022-07-06T03:43:14;11.17;;;2.17;;
69744;SDS011;57015;50.120;-5.168;2022-07-06T03:45:40;8.50;;;2.30;;
69744;SDS011;57015;50.120;-5.168;2022-07-06T03:48:05;11.97;;;2.47;;
69744;SDS011;57015;50.120;-5.168;2022-07-06T03:50:31;8.23;;;2.50;;
69744;SDS011;57015;50.120;-5.168;2022-07-06T03:52:56;8.63;;;2.35;;
69744;SDS011;57015;50.120;-5.168;2022-07-06T03:55:21;5.10;;;2.20;;
69744;SDS011;57015;50.120;-5.168;2022-07-06T03:57:47;7.17;;;2.33;;
69744;SDS011;57015;50.120;-5.168;2022-07-06T04:00:12;9.90;;;2.40;;
69744;SDS011;57015;50.120;-5.168;2022-07-06T04:02:38;6.40;;;2.20;;
69744;SDS011;57015;50.120;-5.168;2022-07-06T04:05:04;8.67;;;2.83;;
69744;SDS011;57015;50.120;-5.168;2022-07-06T04:07:29;7.55;;;2.50;;
69744;SDS011;57015;50.120;-5.168;2022-07-06T04:09:55;6.50;;;1.97;;
69744;SDS011;57015;50.120;-5.168;2022-07-06T04:12:20;9.90;;;2.60;;
69744;SDS011;57015;50.120;-5.168;2022-07-06T04:14:46;12.10;;;2.50;;
69744;SDS011;57015;50.120;-5.168;2022-07-06T04:17:11;10.10;;;2.73;;
69744;SDS011;57015;50.120;-5.168;2022-07-06T04:19:55;8.20;;;2.60;;
69744;SDS011;57015;50.120;-5.168;2022-07-06T04:22:20;7.23;;;2.43;;
69744;SDS011;57015;50.120;-5.168;2022-07-06T04:24:46;7.63;;;2.43;;
69744;SDS011;57015;50.120;-5.168;2022-07-06T04:27:11;6.65;;;2.53;;
69744;SDS011;57015;50.120;-5.168;2022-07-06T04:29:37;9.10;;;2.80;;
69744;SDS011;57015;50.120;-5.168;2022-07-06T04:32:02;7.47;;;2.83;;
69744;SDS011;57015;50.120;-5.168;2022-07-06T04:34:28;10.50;;;3.13;;
69744;SDS011;57015;50.120;-5.168;2022-07-06T04:36:53;10.43;;;2.93;;
69744;SDS011;57015;50.120;-5.168;2022-07-06T04:39:19;10.07;;;3.00;;
69744;SDS011;57015;50.120;-5.168;2022-07-06T04:41:44;9.63;;;2.80;;
69744;SDS011;57015;50.120;-5.168;2022-07-06T04:44:10;6.60;;;2.67;;
69744;SDS011;57015;50.120;-5.168;2022-07-06T04:46:35;7.38;;;3.05;;
69744;SDS011;57015;50.120;-5.168;2022-07-06T04:49:00;11.38;;;3.50;;
69744;SDS011;57015;50.120;-5.168;2022-07-06T04:51:26;7.87;;;3.30;;
69744;SDS011;57015;50.120;-5.168;2022-07-06T04:53:51;7.67;;;3.30;;
69744;SDS011;57015;50.120;-5.168;2022-07-06T04:56:16;10.23;;;3.63;;
69744;SDS011;57015;50.120;-5.168;2022-07-06T04:58:42;8.57;;;2.80;;
69744;SDS011;57015;50.120;-5.168;2022-07-06T05:01:07;10.17;;;3.10;;
69744;SDS011;57015;50.120;-5.168;2022-07-06T05:03:33;9.18;;;4.22;;
69744;SDS011;57015;50.120;-5.168;2022-07-06T05:06:03;8.40;;;3.33;;
69744;SDS011;57015;50.120;-5.168;2022-07-06T05:08:29;7.85;;;3.45;;
69744;SDS011;57015;50.120;-5.168;2022-07-06T05:10:55;9.30;;;3.60;;
69744;SDS011;57015;50.120;-5.168;2022-07-06T05:13:20;9.20;;;3.75;;
69744;SDS011;57015;50.120;-5.168;2022-07-06T05:15:46;9.73;;;4.05;;
69744;SDS011;57015;50.120;-5.168;2022-07-06T05:18:11;12.03;;;4.40;;
69744;SDS011;57015;50.120;-5.168;2022-07-06T05:20:36;7.93;;;4.10;;
69744;SDS011;57015;50.120;-5.168;2022-07-06T05:23:02;11.20;;;4.40;;
69744;SDS011;57015;50.120;-5.168;2022-07-06T05:25:27;9.33;;;4.23;;
69744;SDS011;57015;50.120;-5.168;2022-07-06T05:27:53;9.70;;;4.18;;
69744;SDS011;57015;50.120;-5.168;2022-07-06T05:30:18;9.63;;;4.00;;
69744;SDS011;57015;50.120;-5.168;2022-07-06T05:32:44;9.53;;;3.77;;
69744;SDS011;57015;50.120;-5.168;2022-07-06T05:35:09;15.93;;;4.27;;
69744;SDS011;57015;50.120;-5.168;2022-07-06T05:37:35;11.35;;;4.28;;
69744;SDS011;57015;50.120;-5.168;2022-07-06T05:40:00;8.30;;;3.50;;
69744;SDS011;57015;50.120;-5.168;2022-07-06T05:42:26;8.20;;;3.67;;
69744;SDS011;57015;50.120;-5.168;2022-07-06T05:44:54;11.70;;;4.40;;
69744;SDS011;57015;50.120;-5.168;2022-07-06T05:47:21;9.48;;;3.83;;
69744;SDS011;57015;50.120;-5.168;2022-07-06T05:50:07;9.77;;;3.33;;
69744;SDS011;57015;50.120;-5.168;2022-07-06T05:52:39;8.98;;;3.08;;
69744;SDS011;57015;50.120;-5.168;2022-07-06T05:55:10;10.10;;;3.70;;
69744;SDS011;57015;50.120;-5.168;2022-07-06T05:57:36;8.57;;;3.65;;
69744;SDS011;57015;50.120;-5.168;2022-07-06T06:00:02;8.10;;;3.90;;
69744;SDS011;57015;50.120;-5.168;2022-07-06T06:02:36;10.05;;;3.60;;
69744;SDS011;57015;50.120;-5.168;2022-07-06T06:05:05;10.38;;;3.72;;
69744;SDS011;57015;50.120;-5.168;2022-07-06T06:07:32;10.10;;;3.43;;
69744;SDS011;57015;50.120;-5.168;2022-07-06T06:09:59;9.05;;;2.92;;
69744;SDS011;57015;50.120;-5.168;2022-07-06T06:12:25;9.25;;;3.58;;
69744;SDS011;57015;50.120;-5.168;2022-07-06T06:14:50;6.47;;;3.60;;
69744;SDS011;57015;50.120;-5.168;2022-07-06T06:17:16;9.10;;;3.73;;
69744;SDS011;57015;50.120;-5.168;2022-07-06T06:19:41;9.20;;;3.80;;
69744;SDS011;57015;50.120;-5.168;2022-07-06T06:22:06;8.73;;;3.77;;
69744;SDS011;57015;50.120;-5.168;2022-07-06T06:24:32;9.03;;;3.73;;
69744;SDS011;57015;50.120;-5.168;2022-07-06T06:26:57;10.70;;;3.50;;
69744;SDS011;57015;50.120;-5.168;2022-07-06T06:29:24;8.13;;;3.60;;
69744;SDS011;57015;50.120;-5.168;2022-07-06T06:31:49;8.65;;;4.30;;
69744;SDS011;57015;50.120;-5.168;2022-07-06T06:34:15;9.10;;;4.00;;
69744;SDS011;57015;50.120;-5.168;2022-07-06T06:36:40;10.03;;;4.13;;
69744;SDS011;57015;50.120;-5.168;2022-07-06T06:39:05;9.27;;;3.90;;
69744;SDS011;57015;50.120;-5.168;2022-07-06T06:41:31;11.10;;;3.83;;
69744;SDS011;57015;50.120;-5.168;2022-07-06T06:43:56;10.47;;;3.90;;
69744;SDS011;57015;50.120;-5.168;2022-07-06T06:46:21;8.93;;;4.20;;
69744;SDS011;57015;50.120;-5.168;2022-07-06T06:48:47;11.67;;;4.47;;
69744;SDS011;57015;50.120;-5.168;2022-07-06T06:51:12;11.85;;;4.10;;
69744;SDS011;57015;50.120;-5.168;2022-07-06T06:53:38;10.13;;;4.35;;
69744;SDS011;57015;50.120;-5.168;2022-07-06T06:56:03;10.23;;;3.93;;
69744;SDS011;57015;50.120;-5.168;2022-07-06T06:58:28;10.10;;;4.73;;
69744;SDS011;57015;50.120;-5.168;2022-07-06T07:00:54;7.87;;;3.87;;
69744;SDS011;57015;50.120;-5.168;2022-07-06T07:03:20;10.50;;;3.85;;
69744;SDS011;57015;50.120;-5.168;2022-07-06T07:05:45;12.27;;;4.67;;
69744;SDS011;57015;50.120;-5.168;2022-07-06T07:08:11;12.07;;;4.20;;
69744;SDS011;57015;50.120;-5.168;2022-07-06T07:10:36;13.10;;;4.47;;
69744;SDS011;57015;50.120;-5.168;2022-07-06T07:13:01;11.18;;;4.45;;
69744;SDS011;57015;50.120;-5.168;2022-07-06T07:15:27;11.55;;;4.50;;
69744;SDS011;57015;50.120;-5.168;2022-07-06T07:17:52;10.23;;;4.07;;
69744;SDS011;57015;50.120;-5.168;2022-07-06T07:20:17;11.30;;;4.20;;
69744;SDS011;57015;50.120;-5.168;2022-07-06T07:22:43;9.87;;;4.00;;
69744;SDS011;57015;50.120;-5.168;2022-07-06T07:25:08;10.83;;;4.40;;
69744;SDS011;57015;50.120;-5.168;2022-07-06T07:27:34;11.23;;;4.40;;
69744;SDS011;57015;50.120;-5.168;2022-07-06T07:29:59;11.48;;;4.85;;
69744;SDS011;57015;50.120;-5.168;2022-07-06T07:32:25;13.20;;;5.27;;
69744;SDS011;57015;50.120;-5.168;2022-07-06T07:34:50;12.50;;;4.60;;
69744;SDS011;57015;50.120;-5.168;2022-07-06T07:37:16;14.50;;;4.47;;
69744;SDS011;57015;50.120;-5.168;2022-07-06T07:39:41;15.55;;;5.20;;
69744;SDS011;57015;50.120;-5.168;2022-07-06T07:42:07;12.77;;;4.67;;
69744;SDS011;57015;50.120;-5.168;2022-07-06T07:44:32;14.52;;;5.63;;
69744;SDS011;57015;50.120;-5.168;2022-07-06T07:46:58;10.60;;;4.60;;
69744;SDS011;57015;50.120;-5.168;2022-07-06T07:49:23;11.37;;;4.27;;
69744;SDS011;57015;50.120;-5.168;2022-07-06T07:51:49;12.17;;;4.07;;
69744;SDS011;57015;50.120;-5.168;2022-07-06T07:54:14;8.83;;;3.30;;
69744;SDS011;57015;50.120;-5.168;2022-07-06T07:56:39;9.48;;;3.15;;
69744;SDS011;57015;50.120;-5.168;2022-07-06T07:59:08;10.07;;;3.63;;
69744;SDS011;57015;50.120;-5.168;2022-07-06T08:01:34;8.90;;;3.27;;
69744;SDS011;57015;50.120;-5.168;2022-07-06T08:03:59;10.63;;;2.80;;
69744;SDS011;57015;50.120;-5.168;2022-07-06T08:06:25;12.25;;;3.10;;
69744;SDS011;57015;50.120;-5.168;2022-07-06T08:08:50;16.00;;;3.47;;
69744;SDS011;57015;50.120;-5.168;2022-07-06T08:11:16;9.02;;;2.40;;
69744;SDS011;57015;50.120;-5.168;2022-07-06T08:13:41;7.13;;;2.03;;
69744;SDS011;57015;50.120;-5.168;2022-07-06T08:16:07;8.33;;;2.77;;
69744;SDS011;57015;50.120;-5.168;2022-07-06T08:18:34;10.52;;;2.10;;
69744;SDS011;57015;50.120;-5.168;2022-07-06T08:21:00;9.48;;;2.30;;
69744;SDS011;57015;50.120;-5.168;2022-07-06T08:23:26;6.33;;;2.43;;
69744;SDS011;57015;50.120;-5.168;2022-07-06T08:25:51;7.37;;;1.90;;
69744;SDS011;57015;50.120;-5.168;2022-07-06T08:28:16;8.37;;;2.50;;
69744;SDS011;57015;50.120;-5.168;2022-07-06T08:30:42;8.30;;;2.07;;
69744;SDS011;57015;50.120;-5.168;2022-07-06T08:33:07;5.38;;;1.73;;
69744;SDS011;57015;50.120;-5.168;2022-07-06T08:35:33;8.57;;;2.22;;
69744;SDS011;57015;50.120;-5.168;2022-07-06T08:37:58;6.77;;;1.93;;
69744;SDS011;57015;50.120;-5.168;2022-07-06T08:40:24;6.63;;;1.80;;
69744;SDS011;57015;50.120;-5.168;2022-07-06T08:42:52;5.05;;;1.63;;
69744;SDS011;57015;50.120;-5.168;2022-07-06T08:45:19;8.05;;;1.85;;
69744;SDS011;57015;50.120;-5.168;2022-07-06T08:47:44;5.77;;;1.20;;
69744;SDS011;57015;50.120;-5.168;2022-07-06T08:50:10;6.40;;;2.00;;
69744;SDS011;57015;50.120;-5.168;2022-07-06T08:52:36;5.37;;;1.40;;
69744;SDS011;57015;50.120;-5.168;2022-07-06T08:55:02;5.72;;;1.67;;
69744;SDS011;57015;50.120;-5.168;2022-07-06T08:57:28;5.00;;;1.40;;
69744;SDS011;57015;50.120;-5.168;2022-07-06T08:59:53;7.53;;;1.67;;
69744;SDS011;57015;50.120;-5.168;2022-07-06T09:02:19;5.67;;;1.33;;
69744;SDS011;57015;50.120;-5.168;2022-07-06T09:04:45;8.57;;;1.75;;
69744;SDS011;57015;50.120;-5.168;2022-07-06T09:07:11;6.53;;;1.33;;
69744;SDS011;57015;50.120;-5.168;2022-07-06T09:09:37;5.70;;;1.27;;
69744;SDS011;57015;50.120;-5.168;2022-07-06T09:12:03;7.30;;;1.60;;
69744;SDS011;57015;50.120;-5.168;2022-07-06T09:14:29;5.93;;;1.60;;
69744;SDS011;57015;50.120;-5.168;2022-07-06T09:17:02;6.82;;;1.42;;
69744;SDS011;57015;50.120;-5.168;2022-07-06T09:19:32;5.00;;;1.20;;
69744;SDS011;57015;50.120;-5.168;2022-07-06T09:21:58;7.55;;;1.48;;
69744;SDS011;57015;50.120;-5.168;2022-07-06T09:24:24;6.40;;;0.80;;
69744;SDS011;57015;50.120;-5.168;2022-07-06T09:26:51;6.38;;;1.20;;
69744;SDS011;57015;50.120;-5.168;2022-07-06T09:29:26;6.13;;;1.05;;
69744;SDS011;57015;50.120;-5.168;2022-07-06T09:31:55;5.67;;;1.20;;
69744;SDS011;57015;50.120;-5.168;2022-07-06T09:34:22;4.03;;;0.95;;
69744;SDS011;57015;50.120;-5.168;2022-07-06T09:36:49;5.13;;;1.13;;
69744;SDS011;57015;50.120;-5.168;2022-07-06T09:39:25;6.43;;;0.70;;
69744;SDS011;57015;50.120;-5.168;2022-07-06T09:41:55;6.35;;;0.90;;
69744;SDS011;57015;50.120;-5.168;2022-07-06T09:46:52;6.00;;;1.10;;
69744;SDS011;57015;50.120;-5.168;2022-07-06T09:49:18;5.68;;;1.05;;
69744;SDS011;57015;50.120;-5.168;2022-07-06T09:51:46;7.03;;;0.93;;
69744;SDS011;57015;50.120;-5.168;2022-07-06T09:54:12;3.10;;;0.80;;
69744;SDS011;57015;50.120;-5.168;2022-07-06T09:56:38;4.33;;;0.70;;
69744;SDS011;57015;50.120;-5.168;2022-07-06T09:59:07;4.30;;;0.77;;
69744;SDS011;57015;50.120;-5.168;2022-07-06T10:01:34;3.45;;;0.93;;
69744;SDS011;57015;50.120;-5.168;2022-07-06T10:04:00;4.95;;;0.60;;
69744;SDS011;57015;50.120;-5.168;2022-07-06T10:06:25;5.57;;;1.13;;
69744;SDS011;57015;50.120;-5.168;2022-07-06T10:08:51;4.33;;;1.00;;
69744;SDS011;57015;50.120;-5.168;2022-07-06T10:11:18;2.22;;;0.68;;
69744;SDS011;57015;50.120;-5.168;2022-07-06T10:13:44;4.83;;;1.00;;
69744;SDS011;57015;50.120;-5.168;2022-07-06T10:16:10;3.50;;;0.75;;
69744;SDS011;57015;50.120;-5.168;2022-07-06T10:18:35;4.03;;;0.50;;
69744;SDS011;57015;50.120;-5.168;2022-07-06T10:21:01;3.95;;;0.90;;
69744;SDS011;57015;50.120;-5.168;2022-07-06T10:23:26;4.43;;;1.00;;
69744;SDS011;57015;50.120;-5.168;2022-07-06T10:25:52;3.20;;;0.77;;
69744;SDS011;57015;50.120;-5.168;2022-07-06T10:28:17;4.30;;;0.63;;
69744;SDS011;57015;50.120;-5.168;2022-07-06T10:30:44;4.57;;;0.60;;
69744;SDS011;57015;50.120;-5.168;2022-07-06T10:33:10;3.60;;;0.85;;
69744;SDS011;57015;50.120;-5.168;2022-07-06T10:35:36;2.72;;;0.60;;
69744;SDS011;57015;50.120;-5.168;2022-07-06T10:38:08;3.93;;;0.70;;
69744;SDS011;57015;50.120;-5.168;2022-07-06T10:40:34;2.90;;;0.80;;
69744;SDS011;57015;50.120;-5.168;2022-07-06T10:43:22;2.42;;;0.68;;
69744;SDS011;57015;50.120;-5.168;2022-07-06T10:50:51;6.00;;;0.88;;
69744;SDS011;57015;50.120;-5.168;2022-07-06T10:53:21;5.40;;;0.83;;
69744;SDS011;57015;50.120;-5.168;2022-07-06T10:55:51;4.53;;;0.98;;
69744;SDS011;57015;50.120;-5.168;2022-07-06T10:58:37;4.10;;;0.75;;
69744;SDS011;57015;50.120;-5.168;2022-07-06T11:01:03;5.20;;;1.20;;
69744;SDS011;57015;50.120;-5.168;2022-07-06T11:06:10;4.97;;;0.60;;
69744;SDS011;57015;50.120;-5.168;2022-07-06T11:08:43;4.18;;;0.68;;
69744;SDS011;57015;50.120;-5.168;2022-07-06T11:19:00;5.40;;;0.87;;
69744;SDS011;57015;50.120;-5.168;2022-07-06T11:21:38;3.75;;;0.88;;
69744;SDS011;57015;50.120;-5.168;2022-07-06T11:24:12;3.75;;;0.77;;
69744;SDS011;57015;50.120;-5.168;2022-07-06T11:26:41;4.57;;;0.57;;
69744;SDS011;57015;50.120;-5.168;2022-07-06T11:29:09;1.98;;;0.50;;
69744;SDS011;57015;50.120;-5.168;2022-07-06T11:31:42;1.40;;;0.23;;
69744;SDS011;57015;50.120;-5.168;2022-07-06T11:34:10;2.20;;;0.52;;
69744;SDS011;57015;50.120;-5.168;2022-07-06T11:36:36;3.70;;;0.80;;
69744;SDS011;57015;50.120;-5.168;2022-07-06T11:39:03;2.92;;;0.30;;
69744;SDS011;57015;50.120;-5.168;2022-07-06T11:41:30;4.70;;;0.70;;
69744;SDS011;57015;50.120;-5.168;2022-07-06T11:43:56;2.43;;;0.50;;
69744;SDS011;57015;50.120;-5.168;2022-07-06T11:46:22;2.87;;;0.40;;
69744;SDS011;57015;50.120;-5.168;2022-07-06T11:49:02;2.95;;;0.30;;
69744;SDS011;57015;50.120;-5.168;2022-07-06T11:51:29;1.17;;;0.30;;
69744;SDS011;57015;50.120;-5.168;2022-07-06T11:53:58;2.90;;;0.45;;
69744;SDS011;57015;50.120;-5.168;2022-07-06T11:56:30;2.47;;;0.40;;
69744;SDS011;57015;50.120;-5.168;2022-07-06T11:58:57;3.15;;;0.50;;
69744;SDS011;57015;50.120;-5.168;2022-07-06T12:01:24;3.47;;;0.50;;
69744;SDS011;57015;50.120;-5.168;2022-07-06T12:03:51;1.80;;;0.30;;
69744;SDS011;57015;50.120;-5.168;2022-07-06T12:06:21;1.87;;;0.30;;
69744;SDS011;57015;50.120;-5.168;2022-07-06T12:08:52;2.55;;;0.47;;
69744;SDS011;57015;50.120;-5.168;2022-07-06T12:11:22;2.03;;;0.45;;
69744;SDS011;57015;50.120;-5.168;2022-07-06T12:13:48;1.17;;;0.25;;
69744;SDS011;57015;50.120;-5.168;2022-07-06T12:16:14;2.07;;;0.30;;
69744;SDS011;57015;50.120;-5.168;2022-07-06T12:18:41;2.05;;;0.40;;
69744;SDS011;57015;50.120;-5.168;2022-07-06T12:21:08;3.25;;;0.60;;
69744;SDS011;57015;50.120;-5.168;2022-07-06T12:23:42;1.80;;;0.43;;
69744;SDS011;57015;50.120;-5.168;2022-07-06T12:26:09;2.63;;;0.40;;
69744;SDS011;57015;50.120;-5.168;2022-07-06T12:28:35;2.80;;;0.27;;
69744;SDS011;57015;50.120;-5.168;2022-07-06T12:31:00;2.80;;;0.55;;
69744;SDS011;57015;50.120;-5.168;2022-07-06T12:33:26;2.43;;;0.40;;
69744;SDS011;57015;50.120;-5.168;2022-07-06T12:35:53;2.10;;;0.20;;
69744;SDS011;57015;50.120;-5.168;2022-07-06T12:38:24;2.88;;;0.45;;
69744;SDS011;57015;50.120;-5.168;2022-07-06T12:40:51;1.80;;;0.50;;
69744;SDS011;57015;50.120;-5.168;2022-07-06T12:48:51;2.63;;;0.55;;
69744;SDS011;57015;50.120;-5.168;2022-07-06T12:51:17;5.27;;;0.50;;
69744;SDS011;57015;50.120;-5.168;2022-07-06T12:53:43;4.63;;;0.70;;
69744;SDS011;57015;50.120;-5.168;2022-07-06T12:56:12;3.53;;;0.57;;
69744;SDS011;57015;50.120;-5.168;2022-07-06T12:58:38;3.30;;;0.50;;
69744;SDS011;57015;50.120;-5.168;2022-07-06T13:01:03;5.00;;;0.60;;
69744;SDS011;57015;50.120;-5.168;2022-07-06T13:03:37;2.92;;;0.60;;
69744;SDS011;57015;50.120;-5.168;2022-07-06T13:06:05;1.77;;;0.40;;
69744;SDS011;57015;50.120;-5.168;2022-07-06T13:08:31;4.13;;;0.40;;
69744;SDS011;57015;50.120;-5.168;2022-07-06T13:10:56;1.80;;;0.40;;
69744;SDS011;57015;50.120;-5.168;2022-07-06T13:13:22;2.30;;;0.47;;
69744;SDS011;57015;50.120;-5.168;2022-07-06T13:15:47;2.42;;;0.20;;
69744;SDS011;57015;50.120;-5.168;2022-07-06T13:18:14;3.55;;;0.70;;
69744;SDS011;57015;50.120;-5.168;2022-07-06T13:20:39;2.60;;;0.53;;
69744;SDS011;57015;50.120;-5.168;2022-07-06T13:23:06;4.13;;;0.50;;
69744;SDS011;57015;50.120;-5.168;2022-07-06T13:25:31;2.10;;;0.23;;
69744;SDS011;57015;50.120;-5.168;2022-07-06T13:27:57;2.07;;;0.50;;
69744;SDS011;57015;50.120;-5.168;2022-07-06T13:30:22;2.53;;;0.33;;
69744;SDS011;57015;50.120;-5.168;2022-07-06T13:32:47;1.67;;;0.40;;
69744;SDS011;57015;50.120;-5.168;2022-07-06T13:35:13;2.27;;;0.40;;
69744;SDS011;57015;50.120;-5.168;2022-07-06T13:37:38;1.93;;;0.33;;
69744;SDS011;57015;50.120;-5.168;2022-07-06T13:40:04;3.10;;;0.47;;
69744;SDS011;57015;50.120;-5.168;2022-07-06T13:42:29;4.13;;;0.38;;
69744;SDS011;57015;50.120;-5.168;2022-07-06T13:44:55;1.80;;;0.20;;
69744;SDS011;57015;50.120;-5.168;2022-07-06T13:47:20;2.40;;;0.30;;
69744;SDS011;57015;50.120;-5.168;2022-07-06T13:49:45;1.43;;;0.20;;
69744;SDS011;57015;50.120;-5.168;2022-07-06T13:52:12;2.65;;;0.35;;
69744;SDS011;57015;50.120;-5.168;2022-07-06T13:54:38;3.45;;;0.30;;
69744;SDS011;57015;50.120;-5.168;2022-07-06T13:57:03;4.78;;;0.40;;
69744;SDS011;57015;50.120;-5.168;2022-07-06T13:59:30;1.20;;;0.30;;
69744;SDS011;57015;50.120;-5.168;2022-07-06T14:01:56;1.27;;;0.30;;
69744;SDS011;57015;50.120;-5.168;2022-07-06T14:04:22;1.00;;;0.20;;
69744;SDS011;57015;50.120;-5.168;2022-07-06T14:06:47;1.03;;;0.30;;
69744;SDS011;57015;50.120;-5.168;2022-07-06T14:09:12;2.20;;;0.40;;
69744;SDS011;57015;50.120;-5.168;2022-07-06T14:11:38;1.20;;;0.30;;
69744;SDS011;57015;50.120;-5.168;2022-07-06T14:14:03;2.15;;;0.30;;
69744;SDS011;57015;50.120;-5.168;2022-07-06T14:16:32;2.50;;;0.30;;
69744;SDS011;57015;50.120;-5.168;2022-07-06T14:18:59;2.47;;;0.40;;
69744;SDS011;57015;50.120;-5.168;2022-07-06T14:21:25;2.28;;;0.40;;
69744;SDS011;57015;50.120;-5.168;2022-07-06T14:23:50;2.07;;;0.37;;
69744;SDS011;57015;50.120;-5.168;2022-07-06T14:26:16;2.47;;;0.43;;
69744;SDS011;57015;50.120;-5.168;2022-07-06T14:28:41;1.70;;;0.30;;
69744;SDS011;57015;50.120;-5.168;2022-07-06T14:31:06;1.00;;;0.20;;
69744;SDS011;57015;50.120;-5.168;2022-07-06T14:33:32;4.00;;;0.60;;
69744;SDS011;57015;50.120;-5.168;2022-07-06T14:35:57;3.33;;;0.60;;
69744;SDS011;57015;50.120;-5.168;2022-07-06T14:38:23;1.20;;;0.30;;
69744;SDS011;57015;50.120;-5.168;2022-07-06T14:40:49;1.43;;;0.30;;
69744;SDS011;57015;50.120;-5.168;2022-07-06T14:43:15;1.03;;;0.30;;
69744;SDS011;57015;50.120;-5.168;2022-07-06T14:45:42;1.92;;;0.30;;
69744;SDS011;57015;50.120;-5.168;2022-07-06T14:48:08;6.63;;;0.40;;
69744;SDS011;57015;50.120;-5.168;2022-07-06T14:50:35;3.03;;;0.60;;
69744;SDS011;57015;50.120;-5.168;2022-07-06T14:53:00;2.80;;;0.60;;